createdAt,value
2022-08-01T00:01:57.484Z,1.20
2022-08-01T00:04:24.107Z,1.50
2022-08-01T00:06:50.621Z,1.50
2022-08-01T00:09:24.339Z,1.43
2022-08-01T00:11:59.501Z,1.53
2022-08-01T00:14:32.196Z,1.30
2022-08-01T00:17:03.757Z,1.37
2022-08-01T00:19:33.647Z,1.50
2022-08-01T00:22:00.160Z,1.37
2022-08-01T00:24:26.674Z,1.70
2022-08-01T00:26:53.174Z,1.47
2022-08-01T00:30:10.064Z,1.60
2022-08-01T00:32:06.620Z,1.60
2022-08-01T00:34:33.329Z,1.60
2022-08-01T00:36:59.844Z,1.67
2022-08-01T00:39:26.337Z,1.60
2022-08-01T00:41:59.445Z,1.50
2022-08-01T00:44:26.836Z,1.50
2022-08-01T00:46:53.321Z,1.40
2022-08-01T00:49:19.894Z,1.50
2022-08-01T00:51:46.469Z,1.67
2022-08-01T00:54:13.248Z,1.90
2022-08-01T00:56:43.072Z,1.27
2022-08-01T00:59:10.241Z,1.67
2022-08-01T01:01:39.994Z,1.50
2022-08-01T01:04:08.563Z,1.70
2022-08-01T01:06:35.278Z,1.70
2022-08-01T01:09:07.782Z,2.10
2022-08-01T01:11:41.546Z,1.83
2022-08-01T01:14:11.644Z,1.90
2022-08-01T01:16:41.873Z,1.70
2022-08-01T01:19:11.311Z,1.70
2022-08-01T01:21:49.831Z,1.70
2022-08-01T01:24:30.662Z,1.83
2022-08-01T01:27:00.167Z,1.83
2022-08-01T01:29:29.268Z,1.43
2022-08-01T01:32:03.989Z,1.67
2022-08-01T01:34:31.750Z,1.53
2022-08-01T01:36:59.255Z,1.50
2022-08-01T01:39:26.980Z,1.57
2022-08-01T01:41:54.495Z,1.50
2022-08-01T01:44:21.047Z,1.73
2022-08-01T01:46:48.426Z,1.50
2022-08-01T01:49:15.555Z,1.60
2022-08-01T01:51:43.227Z,1.80
2022-08-01T01:54:25.597Z,1.40
2022-08-01T01:56:52.955Z,1.40
2022-08-01T01:59:25.641Z,1.50
2022-08-01T02:02:06.088Z,1.13
2022-08-01T02:04:33.953Z,1.50
2022-08-01T02:07:02.849Z,1.40
2022-08-01T02:09:30.079Z,1.33
2022-08-01T02:12:08.463Z,1.33
2022-08-01T02:14:36.843Z,1.10
2022-08-01T02:17:05.252Z,1.33
2022-08-01T02:19:31.940Z,1.20
2022-08-01T02:22:10.606Z,1.50
2022-08-01T02:24:43.159Z,1.43
2022-08-01T02:27:11.733Z,1.13
2022-08-01T02:29:46.162Z,1.43
2022-08-01T02:32:15.582Z,1.20
2022-08-01T02:34:43.200Z,1.53
2022-08-01T02:37:10.699Z,1.33
2022-08-01T02:39:38.602Z,1.33
2022-08-01T02:42:07.554Z,1.47
2022-08-01T02:44:36.437Z,1.43
2022-08-01T02:47:04.302Z,1.33
2022-08-01T02:49:35.312Z,1.33
2022-08-01T02:52:04.707Z,1.70
2022-08-01T02:54:32.599Z,1.43
2022-08-01T02:56:59.760Z,1.40
2022-08-01T02:59:27.365Z,1.07
2022-08-01T03:01:56.248Z,1.40
2022-08-01T03:04:24.450Z,1.27
2022-08-01T03:06:51.955Z,1.40
2022-08-01T03:09:19.381Z,1.63
2022-08-01T03:11:46.536Z,1.97
2022-08-01T03:14:13.888Z,1.60
2022-08-01T03:16:43.015Z,1.60
2022-08-01T03:19:10.814Z,1.70
2022-08-01T03:21:39.340Z,1.30
2022-08-01T03:24:06.483Z,1.63
2022-08-01T03:26:34.736Z,1.47
2022-08-01T03:29:07.421Z,1.93
2022-08-01T03:31:37.648Z,1.50
2022-08-01T03:34:06.076Z,1.40
2022-08-01T03:36:34.698Z,1.50
2022-08-01T03:39:03.507Z,1.40
2022-08-01T03:41:33.588Z,1.30
2022-08-01T03:44:04.784Z,1.40
2022-08-01T03:46:34.220Z,1.40
2022-08-01T03:49:04.194Z,1.60
2022-08-01T03:51:31.594Z,1.53
2022-08-01T03:54:00.765Z,1.50
2022-08-01T03:56:28.788Z,1.30
2022-08-01T03:58:55.367Z,1.27
2022-08-01T04:01:22.305Z,1.47
2022-08-01T04:03:48.951Z,1.90
2022-08-01T04:06:15.416Z,1.40
2022-08-01T04:08:42.469Z,1.40
2022-08-01T04:11:47.013Z,1.60
2022-08-01T04:14:13.656Z,1.50
2022-08-01T04:16:40.297Z,1.47
2022-08-01T04:19:09.372Z,1.33
2022-08-01T04:21:36.651Z,1.43
2022-08-01T04:24:06.077Z,1.80
2022-08-01T04:26:34.070Z,1.40
2022-08-01T04:29:01.677Z,1.20
2022-08-01T04:31:28.862Z,1.40
2022-08-01T04:33:56.586Z,1.20
2022-08-01T04:36:24.112Z,1.43
2022-08-01T04:38:53.546Z,1.20
2022-08-01T04:41:21.185Z,1.33
2022-08-01T04:43:47.776Z,1.60
2022-08-01T04:46:15.070Z,1.43
2022-08-01T04:48:41.835Z,1.40
2022-08-01T04:51:17.949Z,1.20
2022-08-01T04:53:45.159Z,1.00
2022-08-01T04:56:14.226Z,1.27
2022-08-01T04:58:41.981Z,1.40
2022-08-01T05:01:08.715Z,1.57
2022-08-01T05:03:38.838Z,1.20
2022-08-01T05:06:05.889Z,1.63
2022-08-01T05:08:32.447Z,1.33
2022-08-01T05:10:58.931Z,1.40
2022-08-01T05:13:25.412Z,1.13
2022-08-01T05:15:53.563Z,1.20
2022-08-01T05:18:26.246Z,1.40
2022-08-01T05:20:55.021Z,1.20
2022-08-01T05:23:33.448Z,1.30
2022-08-01T05:26:09.416Z,1.13
2022-08-01T05:28:36.233Z,1.50
2022-08-01T05:31:05.603Z,1.50
2022-08-01T05:33:32.097Z,1.37
2022-08-01T05:35:58.592Z,1.40
2022-08-01T05:38:25.080Z,1.17
2022-08-01T05:40:51.851Z,1.27
2022-08-01T05:43:18.325Z,1.47
2022-08-01T05:45:45.585Z,1.10
2022-08-01T05:48:12.074Z,1.40
2022-08-01T05:50:38.619Z,1.08
2022-08-01T05:53:05.113Z,1.30
2022-08-01T05:55:31.663Z,2.05
2022-08-01T05:57:58.141Z,1.15
2022-08-01T06:00:24.769Z,1.48
2022-08-01T06:02:51.263Z,1.17
2022-08-01T06:05:17.843Z,1.50
2022-08-01T06:07:44.403Z,1.23
2022-08-01T06:10:11.009Z,1.10
2022-08-01T06:12:37.890Z,1.42
2022-08-01T06:15:05.763Z,0.93
2022-08-01T06:17:32.470Z,1.50
2022-08-01T06:20:03.683Z,1.10
2022-08-01T06:22:30.247Z,1.23
2022-08-01T06:24:58.079Z,1.25
2022-08-01T06:27:25.947Z,1.30
2022-08-01T06:29:54.530Z,1.13
2022-08-01T06:32:27.134Z,1.88
2022-08-01T06:34:54.713Z,1.13
2022-08-01T06:37:21.238Z,1.20
2022-08-01T06:39:47.847Z,1.27
2022-08-01T06:42:15.937Z,1.10
2022-08-01T06:44:42.520Z,1.20
2022-08-01T06:47:09.029Z,0.95
2022-08-01T06:49:35.964Z,1.35
2022-08-01T06:52:02.800Z,0.95
2022-08-01T06:54:29.448Z,1.17
2022-08-01T06:56:55.936Z,1.15
2022-08-01T06:59:22.427Z,1.17
2022-08-01T07:01:48.935Z,1.25
2022-08-01T07:04:15.394Z,1.05
2022-08-01T07:06:41.862Z,1.30
2022-08-01T07:09:13.608Z,1.00
2022-08-01T07:11:40.778Z,1.20
2022-08-01T07:14:07.369Z,0.90
2022-08-01T07:16:33.864Z,0.95
2022-08-01T07:19:00.353Z,1.27
2022-08-01T07:21:39.709Z,0.90
2022-08-01T07:24:13.282Z,0.95
2022-08-01T07:26:52.274Z,1.00
2022-08-01T07:29:20.830Z,1.05
2022-08-01T07:31:47.461Z,1.02
2022-08-01T07:34:13.923Z,1.20
2022-08-01T07:36:40.421Z,0.85
2022-08-01T07:39:06.907Z,1.10
2022-08-01T07:42:04.659Z,1.10
2022-08-01T07:44:19.894Z,1.35
2022-08-01T07:46:46.394Z,0.80
2022-08-01T07:49:12.924Z,1.48
2022-08-01T07:51:39.536Z,1.38
2022-08-01T07:54:06.077Z,1.65
2022-08-01T07:56:32.582Z,1.35
2022-08-01T07:58:59.075Z,1.50
2022-08-01T08:01:25.767Z,1.67
2022-08-01T08:03:52.274Z,1.80
2022-08-01T08:06:18.789Z,2.15
2022-08-01T08:08:45.348Z,1.50
2022-08-01T08:11:11.890Z,1.30
2022-08-01T08:13:38.457Z,1.20
2022-08-01T08:16:05.016Z,1.40
2022-08-01T08:18:31.522Z,1.20
2022-08-01T08:20:58.057Z,1.10
2022-08-01T08:23:44.098Z,1.23
2022-08-01T08:26:13.633Z,1.20
2022-08-01T08:28:40.498Z,1.33
2022-08-01T08:31:07.604Z,1.25
2022-08-01T08:33:51.309Z,1.33
2022-08-01T08:36:17.868Z,2.05
2022-08-01T08:38:44.460Z,1.40
2022-08-01T08:41:11.020Z,1.70
2022-08-01T08:43:37.611Z,1.50
2022-08-01T08:46:04.501Z,2.22
2022-08-01T08:48:31.561Z,2.15
2022-08-01T08:50:58.819Z,2.42
2022-08-01T08:53:25.700Z,2.38
2022-08-01T08:56:02.088Z,2.22
2022-08-01T08:58:29.238Z,1.77
2022-08-01T09:00:58.391Z,1.40
2022-08-01T09:03:25.044Z,1.45
2022-08-01T09:05:51.598Z,1.40
2022-08-01T09:08:18.113Z,1.20
2022-08-01T09:10:44.648Z,1.23
2022-08-01T09:13:11.906Z,1.40
2022-08-01T09:15:39.242Z,1.30
2022-08-01T09:18:05.833Z,1.23
2022-08-01T09:20:32.390Z,1.40
2022-08-01T09:22:58.888Z,1.42
2022-08-01T09:25:29.656Z,1.30
2022-08-01T09:28:03.406Z,1.10
2022-08-01T09:30:37.426Z,0.85
2022-08-01T09:33:06.225Z,1.15
2022-08-01T09:35:43.253Z,0.93
2022-08-01T09:38:13.706Z,1.15
2022-08-01T09:40:49.495Z,1.00
2022-08-01T09:43:16.253Z,1.08
2022-08-01T09:45:43.882Z,0.80
2022-08-01T09:48:18.654Z,0.77
2022-08-01T09:50:46.569Z,0.80
2022-08-01T09:53:29.927Z,1.00
2022-08-01T09:56:09.230Z,0.70
2022-08-01T09:58:49.372Z,1.00
2022-08-01T10:01:15.880Z,1.25
2022-08-01T10:03:42.461Z,0.90
2022-08-01T10:06:24.876Z,0.82
2022-08-01T10:08:51.639Z,0.80
2022-08-01T10:11:18.720Z,0.98
2022-08-01T10:13:45.820Z,0.70
2022-08-01T10:16:13.609Z,0.65
2022-08-01T10:18:43.504Z,0.70
2022-08-01T10:21:11.319Z,0.70
2022-08-01T10:23:40.665Z,0.80
2022-08-01T10:26:08.488Z,0.70
2022-08-01T10:28:36.447Z,0.50
2022-08-01T10:31:05.474Z,0.85
2022-08-01T10:33:52.801Z,0.93
2022-08-01T10:36:21.273Z,0.60
2022-08-01T10:38:49.678Z,0.75
2022-08-01T10:45:00.386Z,1.08
2022-08-01T10:47:50.667Z,0.93
2022-08-01T10:50:26.997Z,0.70
2022-08-01T10:53:15.924Z,0.60
2022-08-01T10:55:50.401Z,1.08
2022-08-01T10:58:27.398Z,0.90
2022-08-01T11:01:12.760Z,0.50
2022-08-01T11:03:56.631Z,0.90
2022-08-01T11:06:26.831Z,0.82
2022-08-01T11:08:55.101Z,0.80
2022-08-01T11:11:22.069Z,0.90
2022-08-01T11:13:58.807Z,0.77
2022-08-01T11:16:38.086Z,0.70
2022-08-01T11:19:05.300Z,0.60
2022-08-01T11:21:56.918Z,0.70
2022-08-01T11:24:44.779Z,0.88
2022-08-01T11:27:23.430Z,0.63
2022-08-01T11:30:13.276Z,0.80
2022-08-01T11:33:10.454Z,0.60
2022-08-01T11:35:37.018Z,0.70
2022-08-01T11:38:22.110Z,0.65
2022-08-01T11:40:48.789Z,0.70
2022-08-01T11:43:15.232Z,0.80
2022-08-01T11:45:52.069Z,0.68
2022-08-01T11:48:19.787Z,0.85
2022-08-01T11:50:46.557Z,0.68
2022-08-01T11:53:15.689Z,0.70
2022-08-01T11:55:51.296Z,0.80
2022-08-01T11:58:27.610Z,0.80
2022-08-01T12:00:58.216Z,0.80
2022-08-01T12:03:34.571Z,0.80
2022-08-01T12:06:01.604Z,0.80
2022-08-01T12:08:37.412Z,0.82
2022-08-01T12:11:04.804Z,0.85
2022-08-01T12:13:40.618Z,0.90
2022-08-01T12:16:10.467Z,0.90
2022-08-01T12:18:41.138Z,0.90
2022-08-01T12:21:07.675Z,0.90
2022-08-01T12:23:34.176Z,1.00
2022-08-01T12:26:02.642Z,1.00
2022-08-01T12:28:29.129Z,1.08
2022-08-01T12:30:56.336Z,0.80
2022-08-01T12:33:22.884Z,0.90
2022-08-01T12:35:49.441Z,0.70
2022-08-01T12:38:20.634Z,1.13
2022-08-01T12:40:51.565Z,1.00
2022-08-01T12:43:27.371Z,1.20
2022-08-01T12:45:57.046Z,0.80
2022-08-01T12:48:24.895Z,0.93
2022-08-01T12:50:53.252Z,0.80
2022-08-01T12:53:21.528Z,1.02
2022-08-01T12:55:59.069Z,0.98
2022-08-01T12:58:32.226Z,0.80
2022-08-01T13:01:12.297Z,1.08
2022-08-01T13:03:39.298Z,1.40
2022-08-01T13:06:13.522Z,0.95
2022-08-01T13:08:40.250Z,1.30
2022-08-01T13:11:10.076Z,1.10
2022-08-01T13:13:45.706Z,1.01
2022-08-01T13:16:25.859Z,1.00
2022-08-01T13:18:59.497Z,1.13
2022-08-01T13:21:27.045Z,1.00
2022-08-01T13:24:11.798Z,1.30
2022-08-01T13:26:42.072Z,0.90
2022-08-01T13:29:10.287Z,1.08
2022-08-01T13:31:38.261Z,0.90
2022-08-01T13:34:05.098Z,0.85
2022-08-01T13:36:32.221Z,1.05
2022-08-01T13:39:17.536Z,1.10
2022-08-01T13:41:44.329Z,1.00
2022-08-01T13:44:11.666Z,1.10
2022-08-01T13:46:39.399Z,1.20
2022-08-01T13:49:16.486Z,1.17
2022-08-01T13:51:43.176Z,1.08
2022-08-01T13:54:09.843Z,1.25
2022-08-01T13:56:36.372Z,1.02
2022-08-01T13:59:05.607Z,0.90
2022-08-01T14:01:34.496Z,1.10
2022-08-01T14:04:01.552Z,1.00
2022-08-01T14:06:28.077Z,0.90
2022-08-01T14:08:54.589Z,1.17
2022-08-01T14:11:21.443Z,1.10
2022-08-01T14:13:48.021Z,1.42
2022-08-01T14:16:15.384Z,1.17
2022-08-01T14:18:44.174Z,1.02
2022-08-01T14:21:11.284Z,1.60
2022-08-01T14:23:37.882Z,0.95
2022-08-01T14:26:11.514Z,0.80
2022-08-01T14:28:38.440Z,1.10
2022-08-01T14:31:07.079Z,0.90
2022-08-01T14:33:34.309Z,1.17
2022-08-01T14:36:06.800Z,1.10
2022-08-01T14:38:47.728Z,0.90
2022-08-01T14:41:17.295Z,0.98
2022-08-01T14:43:43.981Z,0.80
2022-08-01T14:46:11.114Z,0.75
2022-08-01T14:48:37.728Z,0.90
2022-08-01T14:51:05.207Z,0.90
2022-08-01T14:53:35.671Z,1.20
2022-08-01T14:56:03.046Z,0.98
2022-08-01T14:58:29.603Z,0.90
2022-08-01T15:00:58.860Z,1.20
2022-08-01T15:03:25.891Z,1.25
2022-08-01T15:05:52.367Z,0.90
2022-08-01T15:08:18.876Z,1.00
2022-08-01T15:10:45.515Z,0.95
2022-08-01T15:13:12.009Z,0.75
2022-08-01T15:15:38.532Z,1.02
2022-08-01T15:18:05.340Z,0.90
2022-08-01T15:20:32.219Z,1.52
2022-08-01T15:22:58.871Z,1.33
2022-08-01T15:25:25.429Z,1.20
2022-08-01T15:28:06.867Z,0.98
2022-08-01T15:30:34.197Z,1.58
2022-08-01T15:33:00.776Z,1.10
2022-08-01T15:35:27.288Z,0.95
2022-08-01T15:37:53.826Z,1.00
2022-08-01T15:40:20.351Z,1.30
2022-08-01T15:42:46.927Z,0.80
2022-08-01T15:45:44.414Z,0.90
2022-08-01T15:48:04.043Z,1.42
2022-08-01T15:50:30.606Z,1.30
2022-08-01T15:52:57.129Z,1.00
2022-08-01T15:55:23.604Z,1.00
2022-08-01T15:57:50.106Z,1.00
2022-08-01T16:00:16.727Z,1.20
2022-08-01T16:02:43.302Z,1.38
2022-08-01T16:05:10.230Z,0.90
2022-08-01T16:07:36.817Z,1.30
2022-08-01T16:10:23.316Z,1.00
2022-08-01T16:12:50.977Z,0.98
2022-08-01T16:15:17.526Z,1.00
2022-08-01T16:17:44.560Z,1.40
2022-08-01T16:20:11.436Z,1.10
2022-08-01T16:22:37.940Z,0.88
2022-08-01T16:25:04.925Z,1.00
2022-08-01T16:27:31.588Z,0.88
2022-08-01T16:29:58.094Z,1.10
2022-08-01T16:32:28.612Z,1.10
2022-08-01T16:35:02.496Z,0.90
2022-08-01T16:37:29.885Z,1.25
2022-08-01T16:39:56.449Z,1.30
2022-08-01T16:42:22.954Z,1.00
2022-08-01T16:44:54.281Z,1.10
2022-08-01T16:47:20.783Z,1.00
2022-08-01T16:49:47.327Z,1.30
2022-08-01T16:52:13.958Z,1.00
2022-08-01T16:54:40.456Z,1.15
2022-08-01T16:57:08.060Z,1.10
2022-08-01T16:59:40.953Z,0.90
2022-08-01T17:02:08.823Z,0.90
2022-08-01T17:04:35.344Z,1.10
2022-08-01T17:07:01.933Z,0.98
2022-08-01T17:09:28.407Z,1.20
2022-08-01T17:11:54.937Z,1.33
2022-08-01T17:14:21.418Z,0.85
2022-08-01T17:16:48.335Z,1.08
2022-08-01T17:19:15.055Z,0.85
2022-08-01T17:21:41.861Z,0.90
2022-08-01T17:24:08.590Z,1.00
2022-08-01T17:26:35.135Z,0.80
2022-08-01T17:29:01.637Z,1.02
2022-08-01T17:31:28.168Z,1.23
2022-08-01T17:33:55.111Z,1.13
2022-08-01T17:36:21.886Z,0.70
2022-08-01T17:38:48.493Z,1.08
2022-08-01T17:41:15.133Z,1.08
2022-08-01T17:43:41.652Z,1.15
2022-08-01T17:46:08.399Z,1.10
2022-08-01T17:48:34.908Z,1.42
2022-08-01T17:51:01.447Z,1.08
2022-08-01T17:53:27.965Z,1.40
2022-08-01T17:55:57.934Z,1.17
2022-08-01T17:58:50.182Z,1.25
2022-08-01T18:01:12.140Z,1.10
2022-08-01T18:03:41.466Z,0.90
2022-08-01T18:06:08.871Z,1.10
2022-08-01T18:08:35.506Z,1.10
2022-08-01T18:11:02.085Z,0.90
2022-08-01T18:13:29.406Z,0.90
2022-08-01T18:15:56.421Z,0.75
2022-08-01T18:18:33.465Z,1.00
2022-08-01T18:21:00.364Z,0.90
2022-08-01T18:23:26.845Z,1.27
2022-08-01T18:25:53.954Z,1.08
2022-08-01T18:28:31.271Z,0.65
2022-08-01T18:31:00.784Z,0.90
2022-08-01T18:33:27.891Z,0.90
2022-08-01T18:35:54.565Z,0.75
2022-08-01T18:38:24.094Z,0.90
2022-08-01T18:40:51.517Z,0.80
2022-08-01T18:43:18.014Z,1.02
2022-08-01T18:45:44.656Z,0.60
2022-08-01T18:48:11.697Z,0.70
2022-08-01T18:50:39.449Z,0.60
2022-08-01T18:53:05.964Z,1.15
2022-08-01T18:55:32.463Z,0.70
2022-08-01T18:57:58.964Z,0.68
2022-08-01T19:00:25.440Z,0.70
2022-08-01T19:02:51.989Z,0.70
2022-08-01T19:05:18.593Z,1.08
2022-08-01T19:08:06.755Z,0.85
2022-08-01T19:10:31.690Z,0.70
2022-08-01T19:12:58.229Z,1.00
2022-08-01T19:15:25.658Z,0.80
2022-08-01T19:17:53.021Z,0.80
2022-08-01T19:20:19.567Z,0.70
2022-08-01T19:22:46.053Z,0.80
2022-08-01T19:25:14.411Z,0.70
2022-08-01T19:27:42.326Z,0.80
2022-08-01T19:30:09.258Z,0.90
2022-08-01T19:32:36.802Z,0.55
2022-08-01T19:35:06.137Z,0.70
2022-08-01T19:37:33.260Z,0.77
2022-08-01T19:40:00.130Z,0.80
2022-08-01T19:42:27.285Z,0.90
2022-08-01T19:44:54.180Z,0.80
2022-08-01T19:47:20.726Z,0.90
2022-08-01T19:49:47.593Z,0.70
2022-08-01T19:52:15.623Z,0.90
2022-08-01T19:54:43.748Z,1.13
2022-08-01T19:57:12.107Z,0.90
2022-08-01T19:59:38.884Z,0.80
2022-08-01T20:02:05.970Z,0.82
2022-08-01T20:04:33.909Z,0.88
2022-08-01T20:07:00.517Z,0.98
2022-08-01T20:09:27.378Z,1.10
2022-08-01T20:11:54.474Z,0.98
2022-08-01T20:14:25.401Z,1.25
2022-08-01T20:16:53.293Z,1.00
2022-08-01T20:19:20.525Z,1.10
2022-08-01T20:22:03.088Z,1.20
2022-08-01T20:24:35.083Z,1.20
2022-08-01T20:27:04.880Z,1.30
2022-08-01T20:29:32.480Z,1.33
2022-08-01T20:31:59.700Z,1.40
2022-08-01T20:34:26.262Z,1.25
2022-08-01T20:36:56.538Z,1.15
2022-08-01T20:39:24.084Z,1.25
2022-08-01T20:41:59.840Z,1.48
2022-08-01T20:44:31.483Z,1.00
2022-08-01T20:46:58.669Z,1.33
2022-08-01T20:49:26.584Z,1.10
2022-08-01T20:51:53.754Z,1.33
2022-08-01T20:54:20.554Z,0.98
2022-08-01T20:56:56.212Z,1.10
2022-08-01T20:59:56.459Z,1.00
2022-08-01T21:02:42.610Z,0.98
2022-08-01T21:05:13.145Z,1.08
2022-08-01T21:07:52.724Z,1.30
2022-08-01T21:10:20.719Z,0.90
2022-08-01T21:12:56.044Z,0.83
2022-08-01T21:15:22.509Z,0.98
2022-08-01T21:18:06.397Z,1.20
2022-08-01T21:20:33.861Z,0.87
2022-08-01T21:23:00.330Z,0.90
2022-08-01T21:25:27.587Z,0.82
2022-08-01T21:27:54.922Z,0.70
2022-08-01T21:30:23.398Z,0.90
2022-08-01T21:32:50.042Z,0.77
2022-08-01T21:35:18.590Z,0.70
2022-08-01T21:37:45.557Z,0.80
2022-08-01T21:40:19.513Z,0.80
2022-08-01T21:42:46.802Z,0.83
2022-08-01T21:45:14.512Z,0.53
2022-08-01T21:47:42.939Z,0.60
2022-08-01T21:50:09.608Z,0.80
2022-08-01T21:52:42.503Z,0.80
2022-08-01T21:55:15.671Z,0.80
2022-08-01T21:58:01.182Z,0.70
2022-08-01T22:00:27.747Z,0.60
2022-08-01T22:03:00.106Z,0.80
2022-08-01T22:05:49.550Z,0.80
2022-08-01T22:08:16.691Z,0.60
2022-08-01T22:10:43.354Z,0.70
2022-08-01T22:13:11.383Z,0.83
2022-08-01T22:15:44.925Z,0.80
2022-08-01T22:18:11.984Z,0.60
2022-08-01T22:20:38.718Z,0.70
2022-08-01T22:23:06.541Z,0.50
2022-08-01T22:25:33.478Z,0.60
2022-08-01T22:28:05.526Z,0.60
2022-08-01T22:30:39.939Z,0.70
2022-08-01T22:33:16.532Z,0.70
2022-08-01T22:35:45.174Z,0.70
2022-08-01T22:38:11.664Z,0.70
2022-08-01T22:40:40.039Z,0.60
2022-08-01T22:43:13.219Z,0.60
2022-08-01T22:45:39.733Z,0.83
2022-08-01T22:48:19.106Z,0.63
2022-08-01T22:50:55.369Z,0.70
2022-08-01T22:53:21.815Z,0.80
2022-08-01T22:55:58.684Z,0.80
2022-08-01T22:58:29.176Z,0.87
2022-08-01T23:00:56.425Z,0.80
2022-08-01T23:03:37.012Z,0.90
2022-08-01T23:06:20.763Z,0.90
2022-08-01T23:08:51.044Z,0.80
2022-08-01T23:11:19.565Z,0.80
2022-08-01T23:13:46.447Z,1.20
2022-08-01T23:16:17.205Z,1.17
2022-08-01T23:18:46.099Z,0.70
2022-08-01T23:21:13.064Z,0.77
2022-08-01T23:23:39.834Z,0.87
2022-08-01T23:26:06.361Z,0.90
2022-08-01T23:28:33.081Z,0.90
2022-08-01T23:30:59.889Z,1.03
2022-08-01T23:33:26.397Z,0.80
2022-08-01T23:35:52.962Z,0.60
2022-08-01T23:38:20.387Z,0.90
2022-08-01T23:40:47.082Z,0.80
2022-08-01T23:43:17.216Z,0.73
2022-08-01T23:46:02.015Z,0.80
2022-08-01T23:48:29.498Z,0.93
2022-08-01T23:50:56.040Z,1.00
2022-08-01T23:53:24.078Z,0.90
2022-08-01T23:55:57.305Z,1.10
2022-08-01T23:58:24.161Z,1.20
